sensor_id;sensor_type;location;lat;lon;timestamp;temperature;humidity
34542;DHT22;20784;51.332;12.410;2022-10-15T00:00:12;15.20;99.90
34542;DHT22;20784;51.332;12.410;2022-10-15T00:02:37;15.30;99.90
34542;DHT22;20784;51.332;12.410;2022-10-15T00:05:03;15.20;99.90
34542;DHT22;20784;51.332;12.410;2022-10-15T00:07:29;15.30;99.90
34542;DHT22;20784;51.332;12.410;2022-10-15T00:09:55;15.30;99.90
34542;DHT22;20784;51.332;12.410;2022-10-15T00:12:20;15.30;99.90
34542;DHT22;20784;51.332;12.410;2022-10-15T00:14:46;15.30;99.90
34542;DHT22;20784;51.332;12.410;2022-10-15T00:17:12;15.30;99.90
34542;DHT22;20784;51.332;12.410;2022-10-15T00:19:37;15.30;99.90
34542;DHT22;20784;51.332;12.410;2022-10-15T00:22:03;15.40;99.90
34542;DHT22;20784;51.332;12.410;2022-10-15T00:24:28;15.30;99.90
34542;DHT22;20784;51.332;12.410;2022-10-15T00:26:54;15.30;99.90
34542;DHT22;20784;51.332;12.410;2022-10-15T00:29:20;15.30;99.90
34542;DHT22;20784;51.332;12.410;2022-10-15T00:31:45;15.30;99.90
34542;DHT22;20784;51.332;12.410;2022-10-15T00:34:11;15.30;99.90
34542;DHT22;20784;51.332;12.410;2022-10-15T00:36:37;15.30;99.90
34542;DHT22;20784;51.332;12.410;2022-10-15T00:39:05;15.30;99.90
34542;DHT22;20784;51.332;12.410;2022-10-15T00:41:36;15.30;99.90
34542;DHT22;20784;51.332;12.410;2022-10-15T00:49:25;15.20;99.90
34542;DHT22;20784;51.332;12.410;2022-10-15T00:52:02;15.20;99.90
34542;DHT22;20784;51.332;12.410;2022-10-15T00:54:33;15.30;99.90
34542;DHT22;20784;51.332;12.410;2022-10-15T00:57:01;15.30;99.90
34542;DHT22;20784;51.332;12.410;2022-10-15T00:59:28;15.30;99.90
34542;DHT22;20784;51.332;12.410;2022-10-15T01:01:55;15.30;99.90
34542;DHT22;20784;51.332;12.410;2022-10-15T01:04:23;15.30;99.90
34542;DHT22;20784;51.332;12.410;2022-10-15T01:06:49;15.30;99.90
34542;DHT22;20784;51.332;12.410;2022-10-15T01:09:15;15.30;99.90
34542;DHT22;20784;51.332;12.410;2022-10-15T01:11:44;15.30;99.90
34542;DHT22;20784;51.332;12.410;2022-10-15T01:14:26;15.30;99.90
34542;DHT22;20784;51.332;12.410;2022-10-15T01:27:49;15.40;99.90
34542;DHT22;20784;51.332;12.410;2022-10-15T01:30:37;15.30;99.90
34542;DHT22;20784;51.332;12.410;2022-10-15T01:36:01;15.30;99.90
34542;DHT22;20784;51.332;12.410;2022-10-15T01:41:21;15.40;99.90
34542;DHT22;20784;51.332;12.410;2022-10-15T01:47:02;15.40;99.90
34542;DHT22;20784;51.332;12.410;2022-10-15T01:49:32;15.30;99.90
34542;DHT22;20784;51.332;12.410;2022-10-15T01:52:04;15.30;99.90
34542;DHT22;20784;51.332;12.410;2022-10-15T01:54:30;15.30;99.90
34542;DHT22;20784;51.332;12.410;2022-10-15T01:56:57;15.40;99.90
34542;DHT22;20784;51.332;12.410;2022-10-15T01:59:26;15.40;99.90
34542;DHT22;20784;51.332;12.410;2022-10-15T02:01:53;15.30;99.90
34542;DHT22;20784;51.332;12.410;2022-10-15T02:04:24;15.30;99.90
34542;DHT22;20784;51.332;12.410;2022-10-15T02:10:15;15.30;99.90
34542;DHT22;20784;51.332;12.410;2022-10-15T02:12:56;15.40;99.90
34542;DHT22;20784;51.332;12.410;2022-10-15T02:15:33;15.40;99.90
34542;DHT22;20784;51.332;12.410;2022-10-15T02:18:19;15.50;99.90
34542;DHT22;20784;51.332;12.410;2022-10-15T02:20:55;15.40;99.90
34542;DHT22;20784;51.332;12.410;2022-10-15T02:23:35;15.40;99.90
34542;DHT22;20784;51.332;12.410;2022-10-15T02:26:05;15.50;99.90
34542;DHT22;20784;51.332;12.410;2022-10-15T02:28:33;15.40;99.90
34542;DHT22;20784;51.332;12.410;2022-10-15T02:31:01;15.40;99.90
34542;DHT22;20784;51.332;12.410;2022-10-15T02:33:28;15.40;99.90
34542;DHT22;20784;51.332;12.410;2022-10-15T02:35:57;15.40;99.90
34542;DHT22;20784;51.332;12.410;2022-10-15T02:38:24;15.40;99.90
34542;DHT22;20784;51.332;12.410;2022-10-15T02:40:52;15.40;99.90
34542;DHT22;20784;51.332;12.410;2022-10-15T02:43:20;15.40;99.90
34542;DHT22;20784;51.332;12.410;2022-10-15T02:45:47;15.40;99.90
34542;DHT22;20784;51.332;12.410;2022-10-15T02:48:13;15.40;99.90
34542;DHT22;20784;51.332;12.410;2022-10-15T02:50:39;15.40;99.90
34542;DHT22;20784;51.332;12.410;2022-10-15T02:53:05;15.40;99.90
34542;DHT22;20784;51.332;12.410;2022-10-15T02:55:30;15.40;99.90
34542;DHT22;20784;51.332;12.410;2022-10-15T02:57:56;15.40;99.90
34542;DHT22;20784;51.332;12.410;2022-10-15T03:00:22;15.40;99.90
34542;DHT22;20784;51.332;12.410;2022-10-15T03:02:48;15.40;99.90
34542;DHT22;20784;51.332;12.410;2022-10-15T03:05:13;15.40;99.90
34542;DHT22;20784;51.332;12.410;2022-10-15T03:07:39;15.30;99.90
34542;DHT22;20784;51.332;12.410;2022-10-15T03:10:05;15.30;99.90
34542;DHT22;20784;51.332;12.410;2022-10-15T03:12:32;15.40;99.90
34542;DHT22;20784;51.332;12.410;2022-10-15T03:14:58;15.20;99.90
34542;DHT22;20784;51.332;12.410;2022-10-15T03:17:23;15.30;99.90
34542;DHT22;20784;51.332;12.410;2022-10-15T03:19:49;15.30;99.90
34542;DHT22;20784;51.332;12.410;2022-10-15T03:22:15;15.30;99.90
34542;DHT22;20784;51.332;12.410;2022-10-15T03:24:43;15.40;99.90
34542;DHT22;20784;51.332;12.410;2022-10-15T03:27:11;15.40;99.90
34542;DHT22;20784;51.332;12.410;2022-10-15T03:29:39;15.40;99.90
34542;DHT22;20784;51.332;12.410;2022-10-15T03:32:05;15.40;99.90
34542;DHT22;20784;51.332;12.410;2022-10-15T03:34:31;15.40;99.90
34542;DHT22;20784;51.332;12.410;2022-10-15T03:36:57;15.40;99.90
34542;DHT22;20784;51.332;12.410;2022-10-15T03:39:22;15.40;99.90
34542;DHT22;20784;51.332;12.410;2022-10-15T03:41:58;15.40;99.90
34542;DHT22;20784;51.332;12.410;2022-10-15T03:44:24;15.40;99.90
34542;DHT22;20784;51.332;12.410;2022-10-15T03:46:50;15.50;99.90
34542;DHT22;20784;51.332;12.410;2022-10-15T03:49:16;15.40;99.90
34542;DHT22;20784;51.332;12.410;2022-10-15T03:51:44;15.40;99.90
34542;DHT22;20784;51.332;12.410;2022-10-15T03:54:10;15.40;99.90
34542;DHT22;20784;51.332;12.410;2022-10-15T03:56:36;15.40;99.90
34542;DHT22;20784;51.332;12.410;2022-10-15T03:59:01;15.40;99.90
34542;DHT22;20784;51.332;12.410;2022-10-15T04:01:30;15.40;99.90
34542;DHT22;20784;51.332;12.410;2022-10-15T04:03:55;15.40;99.90
34542;DHT22;20784;51.332;12.410;2022-10-15T04:06:21;15.40;99.90
34542;DHT22;20784;51.332;12.410;2022-10-15T04:08:47;15.30;99.90
34542;DHT22;20784;51.332;12.410;2022-10-15T04:11:12;15.40;99.90
34542;DHT22;20784;51.332;12.410;2022-10-15T04:13:38;15.50;99.90
34542;DHT22;20784;51.332;12.410;2022-10-15T04:16:04;15.40;99.90
34542;DHT22;20784;51.332;12.410;2022-10-15T04:18:30;15.40;99.90
34542;DHT22;20784;51.332;12.410;2022-10-15T04:21:00;15.40;99.90
34542;DHT22;20784;51.332;12.410;2022-10-15T04:23:29;15.50;99.90
34542;DHT22;20784;51.332;12.410;2022-10-15T04:25:58;15.40;99.90
34542;DHT22;20784;51.332;12.410;2022-10-15T04:28:24;15.30;99.90
34542;DHT22;20784;51.332;12.410;2022-10-15T04:30:50;15.30;99.90
34542;DHT22;20784;51.332;12.410;2022-10-15T04:33:18;15.40;99.90
34542;DHT22;20784;51.332;12.410;2022-10-15T04:35:44;15.20;99.90
34542;DHT22;20784;51.332;12.410;2022-10-15T04:38:15;15.20;99.90
34542;DHT22;20784;51.332;12.410;2022-10-15T04:40:56;15.20;99.90
34542;DHT22;20784;51.332;12.410;2022-10-15T04:43:22;15.30;99.90
34542;DHT22;20784;51.332;12.410;2022-10-15T04:45:48;15.20;99.90
34542;DHT22;20784;51.332;12.410;2022-10-15T04:48:13;15.20;99.90
34542;DHT22;20784;51.332;12.410;2022-10-15T04:50:39;15.20;99.90
34542;DHT22;20784;51.332;12.410;2022-10-15T04:53:05;15.20;99.90
34542;DHT22;20784;51.332;12.410;2022-10-15T04:55:33;15.10;99.90
34542;DHT22;20784;51.332;12.410;2022-10-15T04:57:59;15.20;99.90
34542;DHT22;20784;51.332;12.410;2022-10-15T05:00:24;15.20;99.90
34542;DHT22;20784;51.332;12.410;2022-10-15T05:02:50;15.20;99.90
34542;DHT22;20784;51.332;12.410;2022-10-15T05:05:16;15.20;99.90
34542;DHT22;20784;51.332;12.410;2022-10-15T05:07:41;15.30;99.90
34542;DHT22;20784;51.332;12.410;2022-10-15T05:10:07;15.30;99.90
34542;DHT22;20784;51.332;12.410;2022-10-15T05:12:33;15.30;99.90
34542;DHT22;20784;51.332;12.410;2022-10-15T05:14:59;15.30;99.90
34542;DHT22;20784;51.332;12.410;2022-10-15T05:17:24;15.30;99.90
34542;DHT22;20784;51.332;12.410;2022-10-15T05:19:50;15.30;99.90
34542;DHT22;20784;51.332;12.410;2022-10-15T05:22:15;15.40;99.90
34542;DHT22;20784;51.332;12.410;2022-10-15T05:24:41;15.30;99.90
34542;DHT22;20784;51.332;12.410;2022-10-15T05:27:06;15.40;99.90
34542;DHT22;20784;51.332;12.410;2022-10-15T05:29:32;15.40;99.90
34542;DHT22;20784;51.332;12.410;2022-10-15T05:31:58;15.30;99.90
34542;DHT22;20784;51.332;12.410;2022-10-15T05:34:23;15.40;99.90
34542;DHT22;20784;51.332;12.410;2022-10-15T05:36:58;15.30;99.90
34542;DHT22;20784;51.332;12.410;2022-10-15T05:39:24;15.30;99.90
34542;DHT22;20784;51.332;12.410;2022-10-15T05:41:49;15.40;99.90
34542;DHT22;20784;51.332;12.410;2022-10-15T05:44:15;15.40;99.90
34542;DHT22;20784;51.332;12.410;2022-10-15T05:46:41;15.40;99.90
34542;DHT22;20784;51.332;12.410;2022-10-15T05:49:06;15.40;99.90
34542;DHT22;20784;51.332;12.410;2022-10-15T05:51:32;15.40;99.90
34542;DHT22;20784;51.332;12.410;2022-10-15T05:53:58;15.40;99.90
34542;DHT22;20784;51.332;12.410;2022-10-15T05:56:25;15.30;99.90
34542;DHT22;20784;51.332;12.410;2022-10-15T05:58:51;15.40;99.90
34542;DHT22;20784;51.332;12.410;2022-10-15T06:01:17;15.40;99.90
34542;DHT22;20784;51.332;12.410;2022-10-15T06:03:43;15.40;99.90
34542;DHT22;20784;51.332;12.410;2022-10-15T06:06:19;15.50;99.90
34542;DHT22;20784;51.332;12.410;2022-10-15T06:08:45;15.50;99.90
34542;DHT22;20784;51.332;12.410;2022-10-15T06:11:11;15.50;99.90
34542;DHT22;20784;51.332;12.410;2022-10-15T06:13:38;15.40;99.90
34542;DHT22;20784;51.332;12.410;2022-10-15T06:16:05;15.50;99.90
34542;DHT22;20784;51.332;12.410;2022-10-15T06:18:30;15.50;99.90
34542;DHT22;20784;51.332;12.410;2022-10-15T06:20:57;15.50;99.90
34542;DHT22;20784;51.332;12.410;2022-10-15T06:23:22;15.50;99.90
34542;DHT22;20784;51.332;12.410;2022-10-15T06:25:49;15.50;99.90
34542;DHT22;20784;51.332;12.410;2022-10-15T06:28:15;15.60;99.90
34542;DHT22;20784;51.332;12.410;2022-10-15T06:30:42;15.70;99.90
34542;DHT22;20784;51.332;12.410;2022-10-15T06:33:08;15.70;99.90
34542;DHT22;20784;51.332;12.410;2022-10-15T06:35:33;15.70;99.90
34542;DHT22;20784;51.332;12.410;2022-10-15T06:38:01;15.60;99.90
34542;DHT22;20784;51.332;12.410;2022-10-15T06:40:26;15.60;99.90
34542;DHT22;20784;51.332;12.410;2022-10-15T06:42:52;15.70;99.90
34542;DHT22;20784;51.332;12.410;2022-10-15T06:45:20;15.60;99.90
34542;DHT22;20784;51.332;12.410;2022-10-15T06:47:51;15.70;99.90
34542;DHT22;20784;51.332;12.410;2022-10-15T06:50:17;15.70;99.90
34542;DHT22;20784;51.332;12.410;2022-10-15T06:52:42;15.90;99.90
34542;DHT22;20784;51.332;12.410;2022-10-15T06:55:09;15.90;99.90
34542;DHT22;20784;51.332;12.410;2022-10-15T06:57:36;16.10;99.90
34542;DHT22;20784;51.332;12.410;2022-10-15T07:00:05;16.20;99.90
34542;DHT22;20784;51.332;12.410;2022-10-15T07:02:34;16.20;99.90
34542;DHT22;20784;51.332;12.410;2022-10-15T07:05:00;16.20;99.90
34542;DHT22;20784;51.332;12.410;2022-10-15T07:07:32;16.20;99.90
34542;DHT22;20784;51.332;12.410;2022-10-15T07:10:00;16.20;99.90
34542;DHT22;20784;51.332;12.410;2022-10-15T07:12:26;16.20;99.90
34542;DHT22;20784;51.332;12.410;2022-10-15T07:14:52;16.10;99.90
34542;DHT22;20784;51.332;12.410;2022-10-15T07:17:17;16.10;99.90
34542;DHT22;20784;51.332;12.410;2022-10-15T07:19:43;16.20;99.90
34542;DHT22;20784;51.332;12.410;2022-10-15T07:22:09;16.10;99.90
34542;DHT22;20784;51.332;12.410;2022-10-15T07:24:35;16.10;99.90
34542;DHT22;20784;51.332;12.410;2022-10-15T07:27:01;16.00;99.90
34542;DHT22;20784;51.332;12.410;2022-10-15T07:29:27;16.20;99.90
34542;DHT22;20784;51.332;12.410;2022-10-15T07:31:53;16.10;99.90
34542;DHT22;20784;51.332;12.410;2022-10-15T07:34:19;16.10;99.90
34542;DHT22;20784;51.332;12.410;2022-10-15T07:36:50;16.20;99.90
34542;DHT22;20784;51.332;12.410;2022-10-15T07:39:19;16.20;99.90
34542;DHT22;20784;51.332;12.410;2022-10-15T07:41:47;16.10;99.90
34542;DHT22;20784;51.332;12.410;2022-10-15T07:44:15;16.30;99.90
34542;DHT22;20784;51.332;12.410;2022-10-15T07:46:41;16.40;99.90
34542;DHT22;20784;51.332;12.410;2022-10-15T07:49:07;16.40;99.90
34542;DHT22;20784;51.332;12.410;2022-10-15T07:51:33;16.40;99.90
34542;DHT22;20784;51.332;12.410;2022-10-15T07:54:01;16.40;99.90
34542;DHT22;20784;51.332;12.410;2022-10-15T07:56:27;16.40;99.90
34542;DHT22;20784;51.332;12.410;2022-10-15T07:58:55;16.50;99.90
34542;DHT22;20784;51.332;12.410;2022-10-15T08:01:23;16.60;99.90
34542;DHT22;20784;51.332;12.410;2022-10-15T08:03:48;16.80;99.90
34542;DHT22;20784;51.332;12.410;2022-10-15T08:06:14;16.80;99.90
34542;DHT22;20784;51.332;12.410;2022-10-15T08:08:40;16.80;99.90
34542;DHT22;20784;51.332;12.410;2022-10-15T08:11:08;16.90;99.90
34542;DHT22;20784;51.332;12.410;2022-10-15T08:13:34;16.90;99.90
34542;DHT22;20784;51.332;12.410;2022-10-15T08:16:00;16.90;99.90
34542;DHT22;20784;51.332;12.410;2022-10-15T08:18:26;16.90;99.90
34542;DHT22;20784;51.332;12.410;2022-10-15T08:20:52;16.90;99.90
34542;DHT22;20784;51.332;12.410;2022-10-15T08:23:18;16.90;99.90
34542;DHT22;20784;51.332;12.410;2022-10-15T08:25:44;16.80;99.90
34542;DHT22;20784;51.332;12.410;2022-10-15T08:28:09;16.90;99.90
34542;DHT22;20784;51.332;12.410;2022-10-15T08:30:36;16.90;99.90
34542;DHT22;20784;51.332;12.410;2022-10-15T08:33:04;17.00;99.90
34542;DHT22;20784;51.332;12.410;2022-10-15T08:35:30;17.00;99.90
34542;DHT22;20784;51.332;12.410;2022-10-15T08:38:00;17.00;99.90
34542;DHT22;20784;51.332;12.410;2022-10-15T08:40:25;17.10;99.90
34542;DHT22;20784;51.332;12.410;2022-10-15T08:42:51;17.20;99.90
34542;DHT22;20784;51.332;12.410;2022-10-15T08:45:22;17.40;99.90
34542;DHT22;20784;51.332;12.410;2022-10-15T08:50:42;17.90;99.90
34542;DHT22;20784;51.332;12.410;2022-10-15T08:53:16;18.40;99.90
34542;DHT22;20784;51.332;12.410;2022-10-15T08:55:47;18.90;99.90
34542;DHT22;20784;51.332;12.410;2022-10-15T08:58:26;19.20;99.90
34542;DHT22;20784;51.332;12.410;2022-10-15T09:04:01;19.20;99.90
34542;DHT22;20784;51.332;12.410;2022-10-15T09:06:37;19.10;99.90
34542;DHT22;20784;51.332;12.410;2022-10-15T09:09:18;19.00;99.90
34542;DHT22;20784;51.332;12.410;2022-10-15T09:12:11;19.10;99.90
34542;DHT22;20784;51.332;12.410;2022-10-15T09:14:42;19.00;99.90
34542;DHT22;20784;51.332;12.410;2022-10-15T09:17:22;18.90;99.90
34542;DHT22;20784;51.332;12.410;2022-10-15T09:19:58;18.90;99.90
34542;DHT22;20784;51.332;12.410;2022-10-15T09:22:33;18.80;99.90
34542;DHT22;20784;51.332;12.410;2022-10-15T09:25:12;18.80;99.90
34542;DHT22;20784;51.332;12.410;2022-10-15T09:27:41;18.80;99.90
34542;DHT22;20784;51.332;12.410;2022-10-15T09:33:22;18.90;99.90
34542;DHT22;20784;51.332;12.410;2022-10-15T09:38:48;19.50;99.90
34542;DHT22;20784;51.332;12.410;2022-10-15T09:44:13;19.30;99.90
34542;DHT22;20784;51.332;12.410;2022-10-15T09:46:44;19.20;99.90
34542;DHT22;20784;51.332;12.410;2022-10-15T09:49:16;19.20;99.90
34542;DHT22;20784;51.332;12.410;2022-10-15T09:57:24;19.00;99.90
34542;DHT22;20784;51.332;12.410;2022-10-15T09:59:55;19.10;99.90
34542;DHT22;20784;51.332;12.410;2022-10-15T10:02:24;19.20;99.90
34542;DHT22;20784;51.332;12.410;2022-10-15T10:04:51;19.20;99.90
34542;DHT22;20784;51.332;12.410;2022-10-15T10:07:34;19.30;99.90
34542;DHT22;20784;51.332;12.410;2022-10-15T10:10:06;19.20;99.90
34542;DHT22;20784;51.332;12.410;2022-10-15T10:12:45;19.00;99.90
34542;DHT22;20784;51.332;12.410;2022-10-15T10:15:36;18.90;99.90
34542;DHT22;20784;51.332;12.410;2022-10-15T10:18:17;18.90;99.90
34542;DHT22;20784;51.332;12.410;2022-10-15T10:20:54;18.80;99.90
34542;DHT22;20784;51.332;12.410;2022-10-15T10:23:39;18.90;99.90
34542;DHT22;20784;51.332;12.410;2022-10-15T10:26:07;18.90;99.90
34542;DHT22;20784;51.332;12.410;2022-10-15T10:31:13;19.20;99.90
34542;DHT22;20784;51.332;12.410;2022-10-15T10:33:49;19.50;99.90
34542;DHT22;20784;51.332;12.410;2022-10-15T10:36:32;19.70;99.90
34542;DHT22;20784;51.332;12.410;2022-10-15T10:42:01;19.90;99.90
34542;DHT22;20784;51.332;12.410;2022-10-15T10:44:37;19.90;99.90
34542;DHT22;20784;51.332;12.410;2022-10-15T10:47:15;20.10;99.90
34542;DHT22;20784;51.332;12.410;2022-10-15T10:49:44;20.00;99.90
34542;DHT22;20784;51.332;12.410;2022-10-15T10:52:32;20.00;99.90
34542;DHT22;20784;51.332;12.410;2022-10-15T10:55:16;20.40;99.90
34542;DHT22;20784;51.332;12.410;2022-10-15T10:57:47;20.60;99.90
34542;DHT22;20784;51.332;12.410;2022-10-15T11:00:44;20.90;99.90
34542;DHT22;20784;51.332;12.410;2022-10-15T11:06:19;21.20;99.90
34542;DHT22;20784;51.332;12.410;2022-10-15T11:09:00;21.20;99.90
34542;DHT22;20784;51.332;12.410;2022-10-15T11:11:55;21.00;99.90
34542;DHT22;20784;51.332;12.410;2022-10-15T11:14:33;20.90;99.90
34542;DHT22;20784;51.332;12.410;2022-10-15T11:17:26;21.70;99.90
34542;DHT22;20784;51.332;12.410;2022-10-15T11:30:49;21.90;99.90
34542;DHT22;20784;51.332;12.410;2022-10-15T11:35:57;21.10;99.90
34542;DHT22;20784;51.332;12.410;2022-10-15T11:43:47;20.90;99.90
34542;DHT22;20784;51.332;12.410;2022-10-15T11:46:26;20.90;99.90
34542;DHT22;20784;51.332;12.410;2022-10-15T11:51:38;20.40;99.90
34542;DHT22;20784;51.332;12.410;2022-10-15T11:54:25;20.20;99.90
34542;DHT22;20784;51.332;12.410;2022-10-15T11:56:53;20.00;99.90
34542;DHT22;20784;51.332;12.410;2022-10-15T12:01:49;19.80;99.90
34542;DHT22;20784;51.332;12.410;2022-10-15T12:04:23;19.80;99.90
34542;DHT22;20784;51.332;12.410;2022-10-15T12:06:54;19.60;99.90
34542;DHT22;20784;51.332;12.410;2022-10-15T12:09:27;19.60;99.90
34542;DHT22;20784;51.332;12.410;2022-10-15T12:12:40;19.50;99.90
34542;DHT22;20784;51.332;12.410;2022-10-15T12:17:53;19.50;99.90
34542;DHT22;20784;51.332;12.410;2022-10-15T12:20:20;19.50;99.90
34542;DHT22;20784;51.332;12.410;2022-10-15T12:31:22;19.80;99.90
34542;DHT22;20784;51.332;12.410;2022-10-15T12:33:53;20.30;99.90
34542;DHT22;20784;51.332;12.410;2022-10-15T12:36:29;20.70;99.90
34542;DHT22;20784;51.332;12.410;2022-10-15T12:39:04;21.30;99.90
34542;DHT22;20784;51.332;12.410;2022-10-15T12:41:42;21.70;99.90
34542;DHT22;20784;51.332;12.410;2022-10-15T12:44:19;21.90;99.90
34542;DHT22;20784;51.332;12.410;2022-10-15T12:46:46;21.80;99.90
34542;DHT22;20784;51.332;12.410;2022-10-15T12:52:00;21.90;99.90
34542;DHT22;20784;51.332;12.410;2022-10-15T12:54:35;22.10;99.90
34542;DHT22;20784;51.332;12.410;2022-10-15T12:57:03;22.30;99.90
34542;DHT22;20784;51.332;12.410;2022-10-15T12:59:55;22.40;99.90
34542;DHT22;20784;51.332;12.410;2022-10-15T13:02:37;22.40;99.90
34542;DHT22;20784;51.332;12.410;2022-10-15T13:05:46;22.40;99.90
34542;DHT22;20784;51.332;12.410;2022-10-15T13:08:15;22.00;99.90
34542;DHT22;20784;51.332;12.410;2022-10-15T13:10:51;21.90;99.90
34542;DHT22;20784;51.332;12.410;2022-10-15T13:13:24;21.70;99.90
34542;DHT22;20784;51.332;12.410;2022-10-15T13:15:55;21.60;99.90
34542;DHT22;20784;51.332;12.410;2022-10-15T13:18:22;21.70;99.90
34542;DHT22;20784;51.332;12.410;2022-10-15T13:20:50;21.70;99.90
34542;DHT22;20784;51.332;12.410;2022-10-15T13:23:27;21.90;99.90
34542;DHT22;20784;51.332;12.410;2022-10-15T13:28:46;22.20;99.90
34542;DHT22;20784;51.332;12.410;2022-10-15T13:33:52;22.60;99.90
34542;DHT22;20784;51.332;12.410;2022-10-15T13:36:24;22.60;99.90
34542;DHT22;20784;51.332;12.410;2022-10-15T13:38:58;22.50;99.90
34542;DHT22;20784;51.332;12.410;2022-10-15T13:41:26;22.10;99.90
34542;DHT22;20784;51.332;12.410;2022-10-15T13:43:56;21.80;99.90
34542;DHT22;20784;51.332;12.410;2022-10-15T13:46:32;21.60;99.90
34542;DHT22;20784;51.332;12.410;2022-10-15T13:49:08;21.40;99.90
34542;DHT22;20784;51.332;12.410;2022-10-15T13:51:43;20.90;99.90
34542;DHT22;20784;51.332;12.410;2022-10-15T13:54:15;20.80;99.90
34542;DHT22;20784;51.332;12.410;2022-10-15T13:56:42;20.80;99.90
34542;DHT22;20784;51.332;12.410;2022-10-15T13:59:14;20.80;99.90
34542;DHT22;20784;51.332;12.410;2022-10-15T14:01:53;20.80;99.90
34542;DHT22;20784;51.332;12.410;2022-10-15T14:04:29;20.80;99.90
34542;DHT22;20784;51.332;12.410;2022-10-15T14:09:35;20.80;99.90
34542;DHT22;20784;51.332;12.410;2022-10-15T14:12:07;20.80;99.90
34542;DHT22;20784;51.332;12.410;2022-10-15T14:14:36;20.70;99.90
34542;DHT22;20784;51.332;12.410;2022-10-15T14:17:20;20.70;99.90
34542;DHT22;20784;51.332;12.410;2022-10-15T14:19:54;20.70;99.90
34542;DHT22;20784;51.332;12.410;2022-10-15T14:22:43;20.70;99.90
34542;DHT22;20784;51.332;12.410;2022-10-15T14:25:21;20.70;99.90
34542;DHT22;20784;51.332;12.410;2022-10-15T14:27:48;20.70;99.90
34542;DHT22;20784;51.332;12.410;2022-10-15T14:30:27;20.70;99.90
34542;DHT22;20784;51.332;12.410;2022-10-15T14:32:57;20.60;99.90
34542;DHT22;20784;51.332;12.410;2022-10-15T14:35:51;20.50;99.90
34542;DHT22;20784;51.332;12.410;2022-10-15T14:38:30;20.40;99.90
34542;DHT22;20784;51.332;12.410;2022-10-15T14:41:03;20.40;99.90
34542;DHT22;20784;51.332;12.410;2022-10-15T14:43:33;20.30;99.90
34542;DHT22;20784;51.332;12.410;2022-10-15T14:46:02;20.30;99.90
34542;DHT22;20784;51.332;12.410;2022-10-15T14:48:34;20.20;99.90
34542;DHT22;20784;51.332;12.410;2022-10-15T14:51:04;20.30;99.90
34542;DHT22;20784;51.332;12.410;2022-10-15T14:53:36;20.20;99.90
34542;DHT22;20784;51.332;12.410;2022-10-15T14:56:18;20.10;99.90
34542;DHT22;20784;51.332;12.410;2022-10-15T14:58:54;20.10;99.90
34542;DHT22;20784;51.332;12.410;2022-10-15T15:01:27;20.00;99.90
34542;DHT22;20784;51.332;12.410;2022-10-15T15:03:57;20.00;99.90
34542;DHT22;20784;51.332;12.410;2022-10-15T15:06:25;20.00;99.90
34542;DHT22;20784;51.332;12.410;2022-10-15T15:08:51;20.10;99.90
34542;DHT22;20784;51.332;12.410;2022-10-15T15:11:21;20.00;99.90
34542;DHT22;20784;51.332;12.410;2022-10-15T15:13:53;20.00;99.90
34542;DHT22;20784;51.332;12.410;2022-10-15T15:16:25;19.90;99.90
34542;DHT22;20784;51.332;12.410;2022-10-15T15:18:51;19.80;99.90
34542;DHT22;20784;51.332;12.410;2022-10-15T15:21:20;19.80;99.90
34542;DHT22;20784;51.332;12.410;2022-10-15T15:23:58;19.90;99.90
34542;DHT22;20784;51.332;12.410;2022-10-15T15:26:26;19.70;99.90
34542;DHT22;20784;51.332;12.410;2022-10-15T15:28:52;19.60;99.90
34542;DHT22;20784;51.332;12.410;2022-10-15T15:31:21;19.60;99.90
34542;DHT22;20784;51.332;12.410;2022-10-15T15:33:49;19.60;99.90
34542;DHT22;20784;51.332;12.410;2022-10-15T15:36:17;19.60;99.90
34542;DHT22;20784;51.332;12.410;2022-10-15T15:39:08;19.50;99.90
34542;DHT22;20784;51.332;12.410;2022-10-15T15:41:46;19.40;99.90
34542;DHT22;20784;51.332;12.410;2022-10-15T15:44:22;19.30;99.90
34542;DHT22;20784;51.332;12.410;2022-10-15T15:46:50;19.40;99.90
34542;DHT22;20784;51.332;12.410;2022-10-15T15:49:22;19.40;99.90
34542;DHT22;20784;51.332;12.410;2022-10-15T15:51:48;19.30;99.90
34542;DHT22;20784;51.332;12.410;2022-10-15T15:54:21;19.30;99.90
34542;DHT22;20784;51.332;12.410;2022-10-15T15:56:51;19.30;99.90
34542;DHT22;20784;51.332;12.410;2022-10-15T15:59:24;19.30;99.90
34542;DHT22;20784;51.332;12.410;2022-10-15T16:01:50;19.30;99.90
34542;DHT22;20784;51.332;12.410;2022-10-15T16:04:19;19.30;99.90
34542;DHT22;20784;51.332;12.410;2022-10-15T16:06:45;19.30;99.90
34542;DHT22;20784;51.332;12.410;2022-10-15T16:09:19;19.20;99.90
34542;DHT22;20784;51.332;12.410;2022-10-15T16:11:48;19.20;99.90
34542;DHT22;20784;51.332;12.410;2022-10-15T16:14:14;19.20;99.90
34542;DHT22;20784;51.332;12.410;2022-10-15T16:16:43;19.10;99.90
34542;DHT22;20784;51.332;12.410;2022-10-15T16:19:11;19.00;99.90
34542;DHT22;20784;51.332;12.410;2022-10-15T16:21:36;19.10;99.90
34542;DHT22;20784;51.332;12.410;2022-10-15T16:24:02;19.00;99.90
34542;DHT22;20784;51.332;12.410;2022-10-15T16:26:31;19.10;99.90
34542;DHT22;20784;51.332;12.410;2022-10-15T16:28:57;19.00;99.90
34542;DHT22;20784;51.332;12.410;2022-10-15T16:31:25;19.00;99.90
34542;DHT22;20784;51.332;12.410;2022-10-15T16:33:52;19.00;99.90
34542;DHT22;20784;51.332;12.410;2022-10-15T16:36:20;18.90;99.90
34542;DHT22;20784;51.332;12.410;2022-10-15T16:38:46;18.90;99.90
34542;DHT22;20784;51.332;12.410;2022-10-15T16:41:13;18.90;99.90
34542;DHT22;20784;51.332;12.410;2022-10-15T16:43:40;18.90;99.90
34542;DHT22;20784;51.332;12.410;2022-10-15T16:46:06;18.90;99.90
34542;DHT22;20784;51.332;12.410;2022-10-15T16:48:32;18.80;99.90
34542;DHT22;20784;51.332;12.410;2022-10-15T16:53:32;18.80;99.90
34542;DHT22;20784;51.332;12.410;2022-10-15T16:56:04;18.80;99.90
34542;DHT22;20784;51.332;12.410;2022-10-15T16:58:30;18.80;99.90
34542;DHT22;20784;51.332;12.410;2022-10-15T17:01:00;18.80;99.90
34542;DHT22;20784;51.332;12.410;2022-10-15T17:03:26;18.70;99.90
34542;DHT22;20784;51.332;12.410;2022-10-15T17:06:00;18.70;99.90
34542;DHT22;20784;51.332;12.410;2022-10-15T17:08:28;18.70;99.90
34542;DHT22;20784;51.332;12.410;2022-10-15T17:10:57;18.80;99.90
34542;DHT22;20784;51.332;12.410;2022-10-15T17:13:23;18.70;99.90
34542;DHT22;20784;51.332;12.410;2022-10-15T17:15:49;18.70;99.90
34542;DHT22;20784;51.332;12.410;2022-10-15T17:18:14;18.70;99.90